南九州METAR電文


熊本(RJFT)
07/19 18:00
METAR RJFT 190900Z 23010KT 200V260 9999 FEW030 SCT/// 31/23 Q1011
RMK 2CU030 A2986=

天草(RJDA)
07/19 18:00
METAR RJDA 190900Z 25004KT 190V290 9999 FEW015 31/28 Q1010 RMK
1CU015 A2985=

新田原(RJFN)
07/19 18:00
METAR RJFN 190900Z 22008KT 9999 FEW030 33/25 Q1010 RMK 1CU030 A2983=

宮崎(RJFM)
07/19 18:00
METAR RJFM 190900Z 26013KT 9999 FEW025 34/22 Q1009 RMK 1CU025 A2981=

鹿児島(RJFK)
07/19 18:00
METAR RJFK 190900Z 24007KT 210V280 9999 FEW030 30/25 Q1012 RMK
1CU030 A2990=

鹿屋(RJFY)
07/19 18:00
METAR RJFY 190900Z 23010KT 9999 FEW025 31/24 Q1011 RMK 2CU025 A2985=

種子島(RJFG)
07/19 18:00
METAR RJFG 190900Z 17006KT 9999 FEW005 BKN015 28/27 Q1013 RMK 1ST005
5CU015 A2992=

屋久島(RJFC)
07/19 18:00
METAR RJFC 190900Z AUTO 32004KT 290V350 9999 SCT050 31/27 Q1011 RMK
A2987=

喜界(RJKI)
07/19 18:00
METAR RJKI 190900Z AUTO 17006KT 120V210 9999 NCD 32/26 Q1011 RMK
A2987=

奄美(RJKA)
07/19 18:00
METAR RJKA 190900Z 19006KT 9999 FEW020 32/27 Q1011 RMK 2CU020 A2986=

徳之島(RJKN)
07/19 18:00
METAR RJKN 190900Z AUTO 21007KT 180V260 9999 FEW032 SCT035 32/27
Q1011 RMK A2986=

沖永良部(RJKB)
07/19 18:00
METAR RJKB 190900Z AUTO 15004KT 100V190 9999 NCD 32/27 Q1011 RMK
A2987=

与論(RORY)
07/19 18:00
METAR RORY 190900Z AUTO 14008KT 9999 FEW019 32/27 Q1011 RMK A2986=
Copyright(c) 2014 International Meteorological & Oceanographic Consultants Co,.Ltd. All Rights Reserved. Design by http://f-tpl.com